sensor_id;sensor_type;location;lat;lon;timestamp;temperature;humidity
21568;DHT22;10944;42.590;12.630;2023-02-28T00:00:23;6.70;99.90
21568;DHT22;10944;42.590;12.630;2023-02-28T00:02:49;6.50;99.90
21568;DHT22;10944;42.590;12.630;2023-02-28T00:05:18;6.50;99.90
21568;DHT22;10944;42.590;12.630;2023-02-28T00:07:44;6.50;99.90
21568;DHT22;10944;42.590;12.630;2023-02-28T00:10:13;6.50;99.90
21568;DHT22;10944;42.590;12.630;2023-02-28T00:12:39;6.40;99.90
21568;DHT22;10944;42.590;12.630;2023-02-28T00:15:08;6.30;99.90
21568;DHT22;10944;42.590;12.630;2023-02-28T00:17:35;6.40;99.90
21568;DHT22;10944;42.590;12.630;2023-02-28T00:20:02;6.30;99.90
21568;DHT22;10944;42.590;12.630;2023-02-28T00:22:44;6.30;99.90
21568;DHT22;10944;42.590;12.630;2023-02-28T00:25:12;6.20;99.90
21568;DHT22;10944;42.590;12.630;2023-02-28T00:27:40;6.20;99.90
21568;DHT22;10944;42.590;12.630;2023-02-28T00:30:07;6.20;99.90
21568;DHT22;10944;42.590;12.630;2023-02-28T00:32:34;6.20;99.90
21568;DHT22;10944;42.590;12.630;2023-02-28T00:35:00;6.20;99.90
21568;DHT22;10944;42.590;12.630;2023-02-28T00:37:26;6.20;99.90
21568;DHT22;10944;42.590;12.630;2023-02-28T00:39:52;6.30;99.90
21568;DHT22;10944;42.590;12.630;2023-02-28T00:42:17;6.30;99.90
21568;DHT22;10944;42.590;12.630;2023-02-28T00:44:43;6.30;99.90
21568;DHT22;10944;42.590;12.630;2023-02-28T00:47:09;6.10;99.90
21568;DHT22;10944;42.590;12.630;2023-02-28T00:49:34;6.10;99.90
21568;DHT22;10944;42.590;12.630;2023-02-28T00:52:00;6.10;99.90
21568;DHT22;10944;42.590;12.630;2023-02-28T00:54:26;6.10;99.90
21568;DHT22;10944;42.590;12.630;2023-02-28T00:56:52;6.10;99.90
21568;DHT22;10944;42.590;12.630;2023-02-28T00:59:18;6.10;99.90
21568;DHT22;10944;42.590;12.630;2023-02-28T01:01:45;6.20;99.90
21568;DHT22;10944;42.590;12.630;2023-02-28T01:04:11;6.20;99.90
21568;DHT22;10944;42.590;12.630;2023-02-28T01:06:37;6.10;99.90
21568;DHT22;10944;42.590;12.630;2023-02-28T01:09:04;6.10;99.90
21568;DHT22;10944;42.590;12.630;2023-02-28T01:11:30;6.00;99.90
21568;DHT22;10944;42.590;12.630;2023-02-28T01:13:56;6.00;99.90
21568;DHT22;10944;42.590;12.630;2023-02-28T01:16:22;6.00;99.90
21568;DHT22;10944;42.590;12.630;2023-02-28T01:18:48;6.00;99.90
21568;DHT22;10944;42.590;12.630;2023-02-28T01:21:16;6.00;99.90
21568;DHT22;10944;42.590;12.630;2023-02-28T01:23:42;5.90;99.90
21568;DHT22;10944;42.590;12.630;2023-02-28T01:28:36;5.90;99.90
21568;DHT22;10944;42.590;12.630;2023-02-28T01:31:02;5.80;99.90
21568;DHT22;10944;42.590;12.630;2023-02-28T01:33:28;5.90;99.90
21568;DHT22;10944;42.590;12.630;2023-02-28T01:36:05;5.90;99.90
21568;DHT22;10944;42.590;12.630;2023-02-28T01:38:32;5.90;99.90
21568;DHT22;10944;42.590;12.630;2023-02-28T01:40:58;5.80;99.90
21568;DHT22;10944;42.590;12.630;2023-02-28T01:43:29;5.70;99.90
21568;DHT22;10944;42.590;12.630;2023-02-28T01:45:56;5.70;99.90
21568;DHT22;10944;42.590;12.630;2023-02-28T01:48:29;5.70;99.90
21568;DHT22;10944;42.590;12.630;2023-02-28T01:50:59;5.70;99.90
21568;DHT22;10944;42.590;12.630;2023-02-28T01:53:37;5.80;99.90
21568;DHT22;10944;42.590;12.630;2023-02-28T01:56:06;5.80;99.90
21568;DHT22;10944;42.590;12.630;2023-02-28T01:58:33;5.90;99.90
21568;DHT22;10944;42.590;12.630;2023-02-28T02:00:59;5.90;99.90
21568;DHT22;10944;42.590;12.630;2023-02-28T02:03:25;5.80;99.90
21568;DHT22;10944;42.590;12.630;2023-02-28T02:05:51;5.70;99.90
21568;DHT22;10944;42.590;12.630;2023-02-28T02:08:19;5.70;99.90
21568;DHT22;10944;42.590;12.630;2023-02-28T02:10:54;5.60;99.90
21568;DHT22;10944;42.590;12.630;2023-02-28T02:16:35;5.60;99.90
21568;DHT22;10944;42.590;12.630;2023-02-28T02:22:21;5.50;99.90
21568;DHT22;10944;42.590;12.630;2023-02-28T02:38:34;5.40;99.90
21568;DHT22;10944;42.590;12.630;2023-02-28T02:41:04;5.30;99.90
21568;DHT22;10944;42.590;12.630;2023-02-28T02:43:44;5.30;99.90
21568;DHT22;10944;42.590;12.630;2023-02-28T02:46:20;5.20;99.90
21568;DHT22;10944;42.590;12.630;2023-02-28T02:48:48;5.20;99.90
21568;DHT22;10944;42.590;12.630;2023-02-28T02:51:17;5.20;99.90
21568;DHT22;10944;42.590;12.630;2023-02-28T02:54:27;5.10;99.90
21568;DHT22;10944;42.590;12.630;2023-02-28T02:56:56;5.00;99.90
21568;DHT22;10944;42.590;12.630;2023-02-28T02:59:24;5.00;99.90
21568;DHT22;10944;42.590;12.630;2023-02-28T03:01:55;4.90;99.90
21568;DHT22;10944;42.590;12.630;2023-02-28T03:04:23;4.80;99.90
21568;DHT22;10944;42.590;12.630;2023-02-28T03:06:53;4.80;99.90
21568;DHT22;10944;42.590;12.630;2023-02-28T03:09:21;4.80;99.90
21568;DHT22;10944;42.590;12.630;2023-02-28T03:11:48;4.80;99.90
21568;DHT22;10944;42.590;12.630;2023-02-28T03:20:32;4.70;99.90
21568;DHT22;10944;42.590;12.630;2023-02-28T03:23:23;4.90;99.90
21568;DHT22;10944;42.590;12.630;2023-02-28T03:26:17;5.00;99.90
21568;DHT22;10944;42.590;12.630;2023-02-28T03:29:00;5.10;99.90
21568;DHT22;10944;42.590;12.630;2023-02-28T03:31:42;5.10;99.90
21568;DHT22;10944;42.590;12.630;2023-02-28T03:34:21;5.10;99.90
21568;DHT22;10944;42.590;12.630;2023-02-28T03:36:52;5.20;99.90
21568;DHT22;10944;42.590;12.630;2023-02-28T03:39:23;5.30;99.90
21568;DHT22;10944;42.590;12.630;2023-02-28T03:41:59;5.30;99.90
21568;DHT22;10944;42.590;12.630;2023-02-28T03:44:48;5.30;99.90
21568;DHT22;10944;42.590;12.630;2023-02-28T03:47:41;5.30;99.90
21568;DHT22;10944;42.590;12.630;2023-02-28T03:53:04;5.30;99.90
21568;DHT22;10944;42.590;12.630;2023-02-28T03:55:42;5.20;99.90
21568;DHT22;10944;42.590;12.630;2023-02-28T03:58:30;5.30;99.90
21568;DHT22;10944;42.590;12.630;2023-02-28T04:01:06;5.40;99.90
21568;DHT22;10944;42.590;12.630;2023-02-28T04:03:35;5.40;99.90
21568;DHT22;10944;42.590;12.630;2023-02-28T04:06:02;5.40;99.90
21568;DHT22;10944;42.590;12.630;2023-02-28T04:08:27;5.30;99.90
21568;DHT22;10944;42.590;12.630;2023-02-28T04:11:00;5.10;99.90
21568;DHT22;10944;42.590;12.630;2023-02-28T04:13:26;5.00;99.90
21568;DHT22;10944;42.590;12.630;2023-02-28T04:15:52;4.90;99.90
21568;DHT22;10944;42.590;12.630;2023-02-28T04:18:18;4.90;99.90
21568;DHT22;10944;42.590;12.630;2023-02-28T04:20:43;4.90;99.90
21568;DHT22;10944;42.590;12.630;2023-02-28T04:23:09;4.80;99.90
21568;DHT22;10944;42.590;12.630;2023-02-28T04:25:41;4.80;99.90
21568;DHT22;10944;42.590;12.630;2023-02-28T04:28:07;4.80;99.90
21568;DHT22;10944;42.590;12.630;2023-02-28T04:30:32;4.80;99.90
21568;DHT22;10944;42.590;12.630;2023-02-28T04:32:59;4.90;99.90
21568;DHT22;10944;42.590;12.630;2023-02-28T04:35:25;5.00;99.90
21568;DHT22;10944;42.590;12.630;2023-02-28T04:37:50;5.00;99.90
21568;DHT22;10944;42.590;12.630;2023-02-28T04:40:16;5.10;99.90
21568;DHT22;10944;42.590;12.630;2023-02-28T04:42:42;5.10;99.90
21568;DHT22;10944;42.590;12.630;2023-02-28T04:45:08;5.10;99.90
21568;DHT22;10944;42.590;12.630;2023-02-28T04:47:36;5.20;99.90
21568;DHT22;10944;42.590;12.630;2023-02-28T04:50:02;5.30;99.90
21568;DHT22;10944;42.590;12.630;2023-02-28T04:52:28;5.20;99.90
21568;DHT22;10944;42.590;12.630;2023-02-28T04:54:54;5.30;99.90
21568;DHT22;10944;42.590;12.630;2023-02-28T04:57:19;5.30;99.90
21568;DHT22;10944;42.590;12.630;2023-02-28T04:59:45;5.40;99.90
21568;DHT22;10944;42.590;12.630;2023-02-28T05:02:12;5.30;99.90
21568;DHT22;10944;42.590;12.630;2023-02-28T05:04:37;5.40;99.90
21568;DHT22;10944;42.590;12.630;2023-02-28T05:07:03;5.40;99.90
21568;DHT22;10944;42.590;12.630;2023-02-28T05:09:29;5.40;99.90
21568;DHT22;10944;42.590;12.630;2023-02-28T05:11:55;5.40;99.90
21568;DHT22;10944;42.590;12.630;2023-02-28T05:14:21;5.40;99.90
21568;DHT22;10944;42.590;12.630;2023-02-28T05:16:46;5.40;99.90
21568;DHT22;10944;42.590;12.630;2023-02-28T05:19:12;5.50;99.90
21568;DHT22;10944;42.590;12.630;2023-02-28T05:21:39;5.50;99.90
21568;DHT22;10944;42.590;12.630;2023-02-28T05:24:09;5.40;99.90
21568;DHT22;10944;42.590;12.630;2023-02-28T05:26:37;5.50;99.90
21568;DHT22;10944;42.590;12.630;2023-02-28T05:29:03;5.50;99.90
21568;DHT22;10944;42.590;12.630;2023-02-28T05:31:28;5.40;99.90
21568;DHT22;10944;42.590;12.630;2023-02-28T05:33:54;5.50;99.90
21568;DHT22;10944;42.590;12.630;2023-02-28T05:36:20;5.60;99.90
21568;DHT22;10944;42.590;12.630;2023-02-28T05:38:48;5.60;99.90
21568;DHT22;10944;42.590;12.630;2023-02-28T05:41:14;5.60;99.90
21568;DHT22;10944;42.590;12.630;2023-02-28T05:43:40;5.50;99.90
21568;DHT22;10944;42.590;12.630;2023-02-28T05:46:07;5.40;99.90
21568;DHT22;10944;42.590;12.630;2023-02-28T05:48:35;5.50;99.90
21568;DHT22;10944;42.590;12.630;2023-02-28T05:51:03;5.50;99.90
21568;DHT22;10944;42.590;12.630;2023-02-28T05:53:29;5.50;99.90
21568;DHT22;10944;42.590;12.630;2023-02-28T05:55:55;5.50;99.90
21568;DHT22;10944;42.590;12.630;2023-02-28T05:58:21;5.50;99.90
21568;DHT22;10944;42.590;12.630;2023-02-28T06:00:47;5.50;99.90
21568;DHT22;10944;42.590;12.630;2023-02-28T06:03:13;5.60;99.90
21568;DHT22;10944;42.590;12.630;2023-02-28T06:05:38;5.50;99.90
21568;DHT22;10944;42.590;12.630;2023-02-28T06:08:05;5.50;99.90
21568;DHT22;10944;42.590;12.630;2023-02-28T06:10:34;5.60;99.90
21568;DHT22;10944;42.590;12.630;2023-02-28T06:13:01;5.50;99.90
21568;DHT22;10944;42.590;12.630;2023-02-28T06:15:28;5.60;99.90
21568;DHT22;10944;42.590;12.630;2023-02-28T06:17:54;5.60;99.90
21568;DHT22;10944;42.590;12.630;2023-02-28T06:20:23;5.60;99.90
21568;DHT22;10944;42.590;12.630;2023-02-28T06:22:49;5.60;99.90
21568;DHT22;10944;42.590;12.630;2023-02-28T06:25:17;5.60;99.90
21568;DHT22;10944;42.590;12.630;2023-02-28T06:27:43;5.60;99.90
21568;DHT22;10944;42.590;12.630;2023-02-28T06:30:10;5.60;99.90
21568;DHT22;10944;42.590;12.630;2023-02-28T06:32:36;5.60;99.90
21568;DHT22;10944;42.590;12.630;2023-02-28T06:35:02;5.70;99.90
21568;DHT22;10944;42.590;12.630;2023-02-28T06:37:30;5.80;99.90
21568;DHT22;10944;42.590;12.630;2023-02-28T06:39:55;5.80;99.90
21568;DHT22;10944;42.590;12.630;2023-02-28T06:42:22;5.90;99.90
21568;DHT22;10944;42.590;12.630;2023-02-28T06:44:51;6.00;99.90
21568;DHT22;10944;42.590;12.630;2023-02-28T06:47:17;6.00;99.90
21568;DHT22;10944;42.590;12.630;2023-02-28T06:49:42;6.00;99.90
21568;DHT22;10944;42.590;12.630;2023-02-28T06:52:10;6.10;99.90
21568;DHT22;10944;42.590;12.630;2023-02-28T06:54:36;6.10;99.90
21568;DHT22;10944;42.590;12.630;2023-02-28T06:57:02;6.20;99.90
21568;DHT22;10944;42.590;12.630;2023-02-28T06:59:28;6.10;99.90
21568;DHT22;10944;42.590;12.630;2023-02-28T07:01:54;6.20;99.90
21568;DHT22;10944;42.590;12.630;2023-02-28T07:04:21;6.30;99.90
21568;DHT22;10944;42.590;12.630;2023-02-28T07:06:47;6.40;99.90
21568;DHT22;10944;42.590;12.630;2023-02-28T07:09:13;6.50;99.90
21568;DHT22;10944;42.590;12.630;2023-02-28T07:11:40;6.50;99.90
21568;DHT22;10944;42.590;12.630;2023-02-28T07:14:06;6.60;99.90
21568;DHT22;10944;42.590;12.630;2023-02-28T07:16:33;6.70;99.90
21568;DHT22;10944;42.590;12.630;2023-02-28T07:18:59;6.80;99.90
21568;DHT22;10944;42.590;12.630;2023-02-28T07:21:24;6.90;99.90
21568;DHT22;10944;42.590;12.630;2023-02-28T07:23:51;7.00;99.90
21568;DHT22;10944;42.590;12.630;2023-02-28T07:26:19;6.90;99.90
21568;DHT22;10944;42.590;12.630;2023-02-28T07:28:46;6.80;99.90
21568;DHT22;10944;42.590;12.630;2023-02-28T07:31:13;6.80;99.90
21568;DHT22;10944;42.590;12.630;2023-02-28T07:33:42;6.80;99.90
21568;DHT22;10944;42.590;12.630;2023-02-28T07:36:11;6.90;99.90
21568;DHT22;10944;42.590;12.630;2023-02-28T07:38:44;7.30;99.90
21568;DHT22;10944;42.590;12.630;2023-02-28T07:41:12;7.50;99.90
21568;DHT22;10944;42.590;12.630;2023-02-28T07:43:38;7.50;99.90
21568;DHT22;10944;42.590;12.630;2023-02-28T07:46:05;7.60;99.90
21568;DHT22;10944;42.590;12.630;2023-02-28T07:48:31;7.80;99.90
21568;DHT22;10944;42.590;12.630;2023-02-28T07:50:58;7.80;99.90
21568;DHT22;10944;42.590;12.630;2023-02-28T07:53:24;7.70;99.90
21568;DHT22;10944;42.590;12.630;2023-02-28T07:55:50;7.80;99.90
21568;DHT22;10944;42.590;12.630;2023-02-28T07:58:16;7.90;99.90
21568;DHT22;10944;42.590;12.630;2023-02-28T08:00:42;8.00;99.90
21568;DHT22;10944;42.590;12.630;2023-02-28T08:03:11;8.00;99.90
21568;DHT22;10944;42.590;12.630;2023-02-28T08:05:41;8.00;99.90
21568;DHT22;10944;42.590;12.630;2023-02-28T08:08:09;8.10;99.90
21568;DHT22;10944;42.590;12.630;2023-02-28T08:10:36;8.10;99.90
21568;DHT22;10944;42.590;12.630;2023-02-28T08:13:02;8.20;99.90
21568;DHT22;10944;42.590;12.630;2023-02-28T08:15:27;8.10;99.90
21568;DHT22;10944;42.590;12.630;2023-02-28T08:17:53;8.00;99.90
21568;DHT22;10944;42.590;12.630;2023-02-28T08:20:22;8.00;99.90
21568;DHT22;10944;42.590;12.630;2023-02-28T08:22:48;8.00;99.90
21568;DHT22;10944;42.590;12.630;2023-02-28T08:25:14;8.00;99.90
21568;DHT22;10944;42.590;12.630;2023-02-28T08:27:40;8.10;99.90
21568;DHT22;10944;42.590;12.630;2023-02-28T08:30:06;8.20;99.90
21568;DHT22;10944;42.590;12.630;2023-02-28T08:32:33;8.20;99.90
21568;DHT22;10944;42.590;12.630;2023-02-28T08:34:59;8.30;99.90
21568;DHT22;10944;42.590;12.630;2023-02-28T08:37:25;8.40;99.90
21568;DHT22;10944;42.590;12.630;2023-02-28T08:39:51;8.50;99.90
21568;DHT22;10944;42.590;12.630;2023-02-28T08:42:16;8.60;99.90
21568;DHT22;10944;42.590;12.630;2023-02-28T08:44:42;8.80;99.90
21568;DHT22;10944;42.590;12.630;2023-02-28T08:47:08;8.90;99.90
21568;DHT22;10944;42.590;12.630;2023-02-28T08:49:33;9.10;99.90
21568;DHT22;10944;42.590;12.630;2023-02-28T08:51:59;9.30;99.90
21568;DHT22;10944;42.590;12.630;2023-02-28T08:54:25;9.40;99.90
21568;DHT22;10944;42.590;12.630;2023-02-28T08:56:50;9.50;99.90
21568;DHT22;10944;42.590;12.630;2023-02-28T08:59:16;9.50;99.90
21568;DHT22;10944;42.590;12.630;2023-02-28T09:01:42;9.60;99.90
21568;DHT22;10944;42.590;12.630;2023-02-28T09:04:09;9.90;99.90
21568;DHT22;10944;42.590;12.630;2023-02-28T09:06:36;9.80;99.90
21568;DHT22;10944;42.590;12.630;2023-02-28T09:09:03;9.80;99.90
21568;DHT22;10944;42.590;12.630;2023-02-28T09:11:31;9.90;99.90
21568;DHT22;10944;42.590;12.630;2023-02-28T09:13:58;10.00;99.90
21568;DHT22;10944;42.590;12.630;2023-02-28T09:16:24;10.10;99.90
21568;DHT22;10944;42.590;12.630;2023-02-28T09:18:50;10.20;99.90
21568;DHT22;10944;42.590;12.630;2023-02-28T09:21:17;10.20;99.90
21568;DHT22;10944;42.590;12.630;2023-02-28T09:23:44;10.20;99.90
21568;DHT22;10944;42.590;12.630;2023-02-28T09:26:22;10.10;99.90
21568;DHT22;10944;42.590;12.630;2023-02-28T09:28:49;10.10;99.90
21568;DHT22;10944;42.590;12.630;2023-02-28T09:31:17;10.10;99.90
21568;DHT22;10944;42.590;12.630;2023-02-28T09:33:50;10.20;99.90
21568;DHT22;10944;42.590;12.630;2023-02-28T09:36:16;10.30;99.90
21568;DHT22;10944;42.590;12.630;2023-02-28T09:38:41;10.30;99.90
21568;DHT22;10944;42.590;12.630;2023-02-28T09:41:20;10.40;99.90
21568;DHT22;10944;42.590;12.630;2023-02-28T09:43:53;10.50;99.90
21568;DHT22;10944;42.590;12.630;2023-02-28T09:48:47;10.60;99.90
21568;DHT22;10944;42.590;12.630;2023-02-28T09:53:58;10.80;99.90
21568;DHT22;10944;42.590;12.630;2023-02-28T10:04:55;11.20;99.90
21568;DHT22;10944;42.590;12.630;2023-02-28T10:09:59;11.40;99.90
21568;DHT22;10944;42.590;12.630;2023-02-28T10:12:28;11.40;99.90
21568;DHT22;10944;42.590;12.630;2023-02-28T10:14:55;11.60;99.40
21568;DHT22;10944;42.590;12.630;2023-02-28T10:17:27;11.70;99.90
21568;DHT22;10944;42.590;12.630;2023-02-28T10:20:03;11.70;99.90
21568;DHT22;10944;42.590;12.630;2023-02-28T10:22:58;11.80;99.90
21568;DHT22;10944;42.590;12.630;2023-02-28T10:25:28;12.00;99.80
21568;DHT22;10944;42.590;12.630;2023-02-28T10:30:33;12.10;99.60
21568;DHT22;10944;42.590;12.630;2023-02-28T10:32:59;12.20;97.70
21568;DHT22;10944;42.590;12.630;2023-02-28T10:35:26;12.30;93.70
21568;DHT22;10944;42.590;12.630;2023-02-28T10:37:57;12.50;91.80
21568;DHT22;10944;42.590;12.630;2023-02-28T10:43:04;12.50;91.40
21568;DHT22;10944;42.590;12.630;2023-02-28T10:45:31;12.40;90.80
21568;DHT22;10944;42.590;12.630;2023-02-28T11:03:45;12.90;90.90
21568;DHT22;10944;42.590;12.630;2023-02-28T11:08:55;12.90;90.80
21568;DHT22;10944;42.590;12.630;2023-02-28T11:11:25;12.80;90.00
21568;DHT22;10944;42.590;12.630;2023-02-28T11:14:25;12.70;90.10
21568;DHT22;10944;42.590;12.630;2023-02-28T11:16:51;12.60;90.00
21568;DHT22;10944;42.590;12.630;2023-02-28T11:19:27;12.50;90.00
21568;DHT22;10944;42.590;12.630;2023-02-28T11:22:00;12.50;90.10
21568;DHT22;10944;42.590;12.630;2023-02-28T11:24:42;12.70;89.60
21568;DHT22;10944;42.590;12.630;2023-02-28T11:29:57;13.30;88.90
21568;DHT22;10944;42.590;12.630;2023-02-28T11:32:28;13.50;88.30
21568;DHT22;10944;42.590;12.630;2023-02-28T11:37:35;13.70;87.00
21568;DHT22;10944;42.590;12.630;2023-02-28T11:40:02;13.60;86.80
21568;DHT22;10944;42.590;12.630;2023-02-28T11:53:03;14.10;84.50
21568;DHT22;10944;42.590;12.630;2023-02-28T11:58:10;13.70;82.80
21568;DHT22;10944;42.590;12.630;2023-02-28T12:03:53;13.50;84.80
21568;DHT22;10944;42.590;12.630;2023-02-28T12:22:52;13.50;83.40
21568;DHT22;10944;42.590;12.630;2023-02-28T12:28:23;13.30;84.40
21568;DHT22;10944;42.590;12.630;2023-02-28T12:31:00;13.30;85.40
21568;DHT22;10944;42.590;12.630;2023-02-28T12:33:33;13.30;83.70
21568;DHT22;10944;42.590;12.630;2023-02-28T12:36:05;13.40;86.40
21568;DHT22;10944;42.590;12.630;2023-02-28T12:41:46;13.60;84.90
21568;DHT22;10944;42.590;12.630;2023-02-28T12:44:32;13.70;84.20
21568;DHT22;10944;42.590;12.630;2023-02-28T12:47:03;13.80;82.70
21568;DHT22;10944;42.590;12.630;2023-02-28T12:49:41;13.70;83.50
21568;DHT22;10944;42.590;12.630;2023-02-28T12:52:10;13.60;83.60
21568;DHT22;10944;42.590;12.630;2023-02-28T13:00:01;13.60;85.80
21568;DHT22;10944;42.590;12.630;2023-02-28T13:10:48;13.80;84.20
21568;DHT22;10944;42.590;12.630;2023-02-28T13:13:25;13.90;84.40
21568;DHT22;10944;42.590;12.630;2023-02-28T13:16:09;13.90;85.30
21568;DHT22;10944;42.590;12.630;2023-02-28T13:18:45;13.80;84.20
21568;DHT22;10944;42.590;12.630;2023-02-28T13:21:42;13.70;84.60
21568;DHT22;10944;42.590;12.630;2023-02-28T13:24:08;13.70;84.10
21568;DHT22;10944;42.590;12.630;2023-02-28T13:34:34;13.50;83.90
21568;DHT22;10944;42.590;12.630;2023-02-28T13:39:49;13.50;83.90
21568;DHT22;10944;42.590;12.630;2023-02-28T13:47:42;13.30;86.30
21568;DHT22;10944;42.590;12.630;2023-02-28T13:50:27;13.20;85.70
21568;DHT22;10944;42.590;12.630;2023-02-28T13:58:27;13.10;83.50
21568;DHT22;10944;42.590;12.630;2023-02-28T14:06:23;13.20;85.50
21568;DHT22;10944;42.590;12.630;2023-02-28T14:11:34;13.50;82.70
21568;DHT22;10944;42.590;12.630;2023-02-28T14:14:01;13.60;84.00
21568;DHT22;10944;42.590;12.630;2023-02-28T14:16:41;13.60;84.00
21568;DHT22;10944;42.590;12.630;2023-02-28T14:19:18;13.60;82.50
21568;DHT22;10944;42.590;12.630;2023-02-28T14:37:57;13.10;85.80
21568;DHT22;10944;42.590;12.630;2023-02-28T14:43:00;13.20;84.90
21568;DHT22;10944;42.590;12.630;2023-02-28T14:45:31;13.20;85.30
21568;DHT22;10944;42.590;12.630;2023-02-28T14:47:58;13.20;86.00
21568;DHT22;10944;42.590;12.630;2023-02-28T14:50:33;13.20;87.20
21568;DHT22;10944;42.590;12.630;2023-02-28T14:53:00;13.10;85.20
21568;DHT22;10944;42.590;12.630;2023-02-28T14:55:29;13.00;85.50
21568;DHT22;10944;42.590;12.630;2023-02-28T14:58:00;12.90;84.70
21568;DHT22;10944;42.590;12.630;2023-02-28T15:00:33;12.80;88.00
21568;DHT22;10944;42.590;12.630;2023-02-28T15:03:01;12.70;87.70
21568;DHT22;10944;42.590;12.630;2023-02-28T15:05:34;12.60;87.20
21568;DHT22;10944;42.590;12.630;2023-02-28T15:10:31;12.50;85.10
21568;DHT22;10944;42.590;12.630;2023-02-28T15:13:05;12.50;87.60
21568;DHT22;10944;42.590;12.630;2023-02-28T15:15:51;12.30;91.10
21568;DHT22;10944;42.590;12.630;2023-02-28T15:21:04;11.80;92.30
21568;DHT22;10944;42.590;12.630;2023-02-28T15:23:31;11.60;93.40
21568;DHT22;10944;42.590;12.630;2023-02-28T15:25:59;11.50;92.80
21568;DHT22;10944;42.590;12.630;2023-02-28T15:28:25;11.60;92.00
21568;DHT22;10944;42.590;12.630;2023-02-28T15:30:57;11.70;91.70
21568;DHT22;10944;42.590;12.630;2023-02-28T15:33:28;11.80;91.40
21568;DHT22;10944;42.590;12.630;2023-02-28T15:36:25;12.00;88.10
21568;DHT22;10944;42.590;12.630;2023-02-28T15:38:53;12.20;87.20
21568;DHT22;10944;42.590;12.630;2023-02-28T15:41:36;12.30;86.20
21568;DHT22;10944;42.590;12.630;2023-02-28T15:44:17;12.30;86.00
21568;DHT22;10944;42.590;12.630;2023-02-28T15:46:54;12.30;86.20
21568;DHT22;10944;42.590;12.630;2023-02-28T15:49:21;12.30;86.00
21568;DHT22;10944;42.590;12.630;2023-02-28T15:51:49;12.20;85.50
21568;DHT22;10944;42.590;12.630;2023-02-28T15:54:28;12.20;86.10
21568;DHT22;10944;42.590;12.630;2023-02-28T15:57:03;12.30;89.20
21568;DHT22;10944;42.590;12.630;2023-02-28T15:59:31;12.10;89.80
21568;DHT22;10944;42.590;12.630;2023-02-28T16:04:36;12.00;88.40
21568;DHT22;10944;42.590;12.630;2023-02-28T16:07:11;12.10;86.20
21568;DHT22;10944;42.590;12.630;2023-02-28T16:09:37;12.00;88.60
21568;DHT22;10944;42.590;12.630;2023-02-28T16:12:03;11.80;87.90
21568;DHT22;10944;42.590;12.630;2023-02-28T16:14:30;11.70;89.80
21568;DHT22;10944;42.590;12.630;2023-02-28T16:17:06;11.60;89.30
21568;DHT22;10944;42.590;12.630;2023-02-28T16:19:34;11.60;89.20
21568;DHT22;10944;42.590;12.630;2023-02-28T16:22:00;11.50;90.40
21568;DHT22;10944;42.590;12.630;2023-02-28T16:24:26;11.30;90.90
21568;DHT22;10944;42.590;12.630;2023-02-28T16:26:53;11.30;90.70
21568;DHT22;10944;42.590;12.630;2023-02-28T16:29:28;11.30;90.10
21568;DHT22;10944;42.590;12.630;2023-02-28T16:31:55;11.40;88.90
21568;DHT22;10944;42.590;12.630;2023-02-28T16:34:21;11.60;87.90
21568;DHT22;10944;42.590;12.630;2023-02-28T16:36:48;11.70;87.10
21568;DHT22;10944;42.590;12.630;2023-02-28T16:39:14;11.70;85.60
21568;DHT22;10944;42.590;12.630;2023-02-28T16:41:43;11.80;86.20
21568;DHT22;10944;42.590;12.630;2023-02-28T16:44:29;11.70;85.60
21568;DHT22;10944;42.590;12.630;2023-02-28T16:46:56;11.70;86.90
21568;DHT22;10944;42.590;12.630;2023-02-28T16:49:22;11.70;86.40
21568;DHT22;10944;42.590;12.630;2023-02-28T16:51:48;11.70;86.40
21568;DHT22;10944;42.590;12.630;2023-02-28T16:54:13;11.70;85.10
21568;DHT22;10944;42.590;12.630;2023-02-28T16:56:43;11.70;85.10
21568;DHT22;10944;42.590;12.630;2023-02-28T16:59:10;11.60;85.70
21568;DHT22;10944;42.590;12.630;2023-02-28T17:01:36;11.60;86.20
21568;DHT22;10944;42.590;12.630;2023-02-28T17:04:02;11.50;86.70
21568;DHT22;10944;42.590;12.630;2023-02-28T17:06:29;11.60;85.70
21568;DHT22;10944;42.590;12.630;2023-02-28T17:08:56;11.50;85.50
21568;DHT22;10944;42.590;12.630;2023-02-28T17:11:23;11.50;86.20
21568;DHT22;10944;42.590;12.630;2023-02-28T17:13:49;11.40;87.60
21568;DHT22;10944;42.590;12.630;2023-02-28T17:16:33;11.30;86.80
21568;DHT22;10944;42.590;12.630;2023-02-28T17:19:02;11.40;86.70
21568;DHT22;10944;42.590;12.630;2023-02-28T17:21:29;11.40;86.20
21568;DHT22;10944;42.590;12.630;2023-02-28T17:23:55;11.30;87.20
21568;DHT22;10944;42.590;12.630;2023-02-28T17:26:24;11.30;86.80
21568;DHT22;10944;42.590;12.630;2023-02-28T17:28:51;11.30;87.10
21568;DHT22;10944;42.590;12.630;2023-02-28T17:31:17;11.30;87.90
21568;DHT22;10944;42.590;12.630;2023-02-28T17:33:43;11.20;87.20
21568;DHT22;10944;42.590;12.630;2023-02-28T17:36:22;11.20;88.50
21568;DHT22;10944;42.590;12.630;2023-02-28T17:38:50;11.10;90.00
21568;DHT22;10944;42.590;12.630;2023-02-28T17:41:15;11.00;90.00
21568;DHT22;10944;42.590;12.630;2023-02-28T17:43:41;11.10;88.50
21568;DHT22;10944;42.590;12.630;2023-02-28T17:46:25;11.10;89.70
21568;DHT22;10944;42.590;12.630;2023-02-28T17:48:53;11.10;90.10
21568;DHT22;10944;42.590;12.630;2023-02-28T17:51:20;11.00;91.00
21568;DHT22;10944;42.590;12.630;2023-02-28T17:53:47;10.80;90.80
21568;DHT22;10944;42.590;12.630;2023-02-28T17:56:24;10.80;92.10
21568;DHT22;10944;42.590;12.630;2023-02-28T17:58:52;10.70;93.30
21568;DHT22;10944;42.590;12.630;2023-02-28T18:01:18;10.50;93.90
21568;DHT22;10944;42.590;12.630;2023-02-28T18:03:45;10.40;94.30
21568;DHT22;10944;42.590;12.630;2023-02-28T18:06:20;10.40;93.00
21568;DHT22;10944;42.590;12.630;2023-02-28T18:08:46;10.40;93.30
21568;DHT22;10944;42.590;12.630;2023-02-28T18:11:12;10.40;93.10
21568;DHT22;10944;42.590;12.630;2023-02-28T18:13:44;10.40;93.10
21568;DHT22;10944;42.590;12.630;2023-02-28T18:16:11;10.40;92.40
21568;DHT22;10944;42.590;12.630;2023-02-28T18:18:37;10.50;91.50
21568;DHT22;10944;42.590;12.630;2023-02-28T18:21:06;10.50;91.60
21568;DHT22;10944;42.590;12.630;2023-02-28T18:23:34;10.60;91.50
21568;DHT22;10944;42.590;12.630;2023-02-28T18:26:00;10.50;91.90
21568;DHT22;10944;42.590;12.630;2023-02-28T18:28:26;10.50;91.80
21568;DHT22;10944;42.590;12.630;2023-02-28T18:30:52;10.50;92.00
21568;DHT22;10944;42.590;12.630;2023-02-28T18:33:18;10.50;92.00
21568;DHT22;10944;42.590;12.630;2023-02-28T18:35:44;10.50;91.80
21568;DHT22;10944;42.590;12.630;2023-02-28T18:38:14;10.50;91.70
21568;DHT22;10944;42.590;12.630;2023-02-28T18:40:40;10.50;91.70
21568;DHT22;10944;42.590;12.630;2023-02-28T18:43:07;10.60;91.20